sensor_id;sensor_type;location;lat;lon;timestamp;P1;durP1;ratioP1;P2;durP2;ratioP2
52964;SDS011;42923;53.220;6.528;2022-12-18T00:00:45;64.15;;;28.55;;
52964;SDS011;42923;53.220;6.528;2022-12-18T00:03:12;30.73;;;15.45;;
52964;SDS011;42923;53.220;6.528;2022-12-18T00:05:45;39.47;;;18.05;;
52964;SDS011;42923;53.220;6.528;2022-12-18T00:08:15;57.03;;;28.75;;
52964;SDS011;42923;53.220;6.528;2022-12-18T00:10:42;40.63;;;19.92;;
52964;SDS011;42923;53.220;6.528;2022-12-18T00:13:08;55.45;;;26.73;;
52964;SDS011;42923;53.220;6.528;2022-12-18T00:15:35;36.10;;;14.95;;
52964;SDS011;42923;53.220;6.528;2022-12-18T00:18:01;58.33;;;26.52;;
52964;SDS011;42923;53.220;6.528;2022-12-18T00:20:27;40.55;;;18.55;;
52964;SDS011;42923;53.220;6.528;2022-12-18T00:22:53;40.30;;;21.02;;
52964;SDS011;42923;53.220;6.528;2022-12-18T00:25:19;47.20;;;21.80;;
52964;SDS011;42923;53.220;6.528;2022-12-18T00:27:45;41.53;;;17.15;;
52964;SDS011;42923;53.220;6.528;2022-12-18T00:30:13;63.78;;;28.10;;
52964;SDS011;42923;53.220;6.528;2022-12-18T00:32:38;53.75;;;25.75;;
52964;SDS011;42923;53.220;6.528;2022-12-18T00:35:05;52.65;;;20.48;;
52964;SDS011;42923;53.220;6.528;2022-12-18T00:37:33;51.30;;;22.77;;
52964;SDS011;42923;53.220;6.528;2022-12-18T00:39:59;33.08;;;16.05;;
52964;SDS011;42923;53.220;6.528;2022-12-18T00:42:25;57.88;;;27.17;;
52964;SDS011;42923;53.220;6.528;2022-12-18T00:45:09;43.65;;;17.77;;
52964;SDS011;42923;53.220;6.528;2022-12-18T00:47:35;43.08;;;18.50;;
52964;SDS011;42923;53.220;6.528;2022-12-18T00:50:01;44.38;;;18.30;;
52964;SDS011;42923;53.220;6.528;2022-12-18T00:52:27;37.28;;;16.20;;
52964;SDS011;42923;53.220;6.528;2022-12-18T00:54:53;52.08;;;20.95;;
52964;SDS011;42923;53.220;6.528;2022-12-18T00:57:19;35.60;;;19.27;;
52964;SDS011;42923;53.220;6.528;2022-12-18T00:59:45;47.58;;;22.77;;
52964;SDS011;42923;53.220;6.528;2022-12-18T01:02:10;35.88;;;17.63;;
52964;SDS011;42923;53.220;6.528;2022-12-18T01:04:39;41.58;;;17.60;;
52964;SDS011;42923;53.220;6.528;2022-12-18T01:07:05;58.03;;;29.25;;
52964;SDS011;42923;53.220;6.528;2022-12-18T01:09:32;51.10;;;22.42;;
52964;SDS011;42923;53.220;6.528;2022-12-18T01:11:59;31.45;;;11.82;;
52964;SDS011;42923;53.220;6.528;2022-12-18T01:14:25;34.13;;;17.38;;
52964;SDS011;42923;53.220;6.528;2022-12-18T01:16:51;61.47;;;28.50;;
52964;SDS011;42923;53.220;6.528;2022-12-18T01:19:17;41.33;;;17.98;;
52964;SDS011;42923;53.220;6.528;2022-12-18T01:21:45;36.47;;;13.95;;
52964;SDS011;42923;53.220;6.528;2022-12-18T01:24:12;32.10;;;17.33;;
52964;SDS011;42923;53.220;6.528;2022-12-18T01:26:38;26.05;;;12.80;;
52964;SDS011;42923;53.220;6.528;2022-12-18T01:29:03;35.50;;;18.33;;
52964;SDS011;42923;53.220;6.528;2022-12-18T01:31:30;41.00;;;20.55;;
52964;SDS011;42923;53.220;6.528;2022-12-18T01:33:59;45.63;;;17.48;;
52964;SDS011;42923;53.220;6.528;2022-12-18T01:36:27;43.33;;;14.60;;
52964;SDS011;42923;53.220;6.528;2022-12-18T01:38:55;52.42;;;22.05;;
52964;SDS011;42923;53.220;6.528;2022-12-18T01:41:23;40.80;;;15.77;;
52964;SDS011;42923;53.220;6.528;2022-12-18T01:43:52;61.58;;;20.98;;
52964;SDS011;42923;53.220;6.528;2022-12-18T01:46:22;35.88;;;14.85;;
52964;SDS011;42923;53.220;6.528;2022-12-18T01:48:54;42.00;;;19.80;;
52964;SDS011;42923;53.220;6.528;2022-12-18T01:51:25;63.83;;;28.40;;
52964;SDS011;42923;53.220;6.528;2022-12-18T01:53:53;66.35;;;27.35;;
52964;SDS011;42923;53.220;6.528;2022-12-18T01:56:19;49.72;;;23.92;;
52964;SDS011;42923;53.220;6.528;2022-12-18T01:58:54;49.88;;;25.73;;
52964;SDS011;42923;53.220;6.528;2022-12-18T02:01:27;28.60;;;12.85;;
52964;SDS011;42923;53.220;6.528;2022-12-18T02:03:55;44.40;;;20.20;;
52964;SDS011;42923;53.220;6.528;2022-12-18T02:08:57;65.88;;;27.95;;
52964;SDS011;42923;53.220;6.528;2022-12-18T02:14:17;53.20;;;23.58;;
52964;SDS011;42923;53.220;6.528;2022-12-18T02:25:05;39.22;;;17.38;;
52964;SDS011;42923;53.220;6.528;2022-12-18T02:27:41;60.42;;;25.30;;
52964;SDS011;42923;53.220;6.528;2022-12-18T02:30:11;22.40;;;8.30;;
52964;SDS011;42923;53.220;6.528;2022-12-18T02:32:38;67.45;;;26.33;;
52964;SDS011;42923;53.220;6.528;2022-12-18T02:35:13;57.42;;;24.95;;
52964;SDS011;42923;53.220;6.528;2022-12-18T02:37:43;49.75;;;21.58;;
52964;SDS011;42923;53.220;6.528;2022-12-18T02:40:12;51.97;;;22.20;;
52964;SDS011;42923;53.220;6.528;2022-12-18T02:42:40;41.13;;;20.08;;
52964;SDS011;42923;53.220;6.528;2022-12-18T02:45:10;34.08;;;14.25;;
52964;SDS011;42923;53.220;6.528;2022-12-18T02:47:37;58.58;;;21.80;;
52964;SDS011;42923;53.220;6.528;2022-12-18T02:50:51;43.53;;;17.40;;
52964;SDS011;42923;53.220;6.528;2022-12-18T02:53:10;51.20;;;22.17;;
52964;SDS011;42923;53.220;6.528;2022-12-18T02:55:58;51.70;;;27.95;;
52964;SDS011;42923;53.220;6.528;2022-12-18T03:07:18;30.90;;;15.50;;
52964;SDS011;42923;53.220;6.528;2022-12-18T03:09:54;33.83;;;18.00;;
52964;SDS011;42923;53.220;6.528;2022-12-18T03:12:28;47.22;;;20.38;;
52964;SDS011;42923;53.220;6.528;2022-12-18T03:15:06;42.25;;;17.67;;
52964;SDS011;42923;53.220;6.528;2022-12-18T03:17:50;33.42;;;16.17;;
52964;SDS011;42923;53.220;6.528;2022-12-18T03:20:24;61.60;;;25.67;;
52964;SDS011;42923;53.220;6.528;2022-12-18T03:22:53;34.15;;;17.63;;
52964;SDS011;42923;53.220;6.528;2022-12-18T03:25:25;45.65;;;20.17;;
52964;SDS011;42923;53.220;6.528;2022-12-18T03:27:54;28.73;;;13.15;;
52964;SDS011;42923;53.220;6.528;2022-12-18T03:30:23;68.65;;;26.92;;
52964;SDS011;42923;53.220;6.528;2022-12-18T03:35:24;50.08;;;21.52;;
52964;SDS011;42923;53.220;6.528;2022-12-18T03:37:54;32.25;;;15.32;;
52964;SDS011;42923;53.220;6.528;2022-12-18T03:40:22;44.30;;;18.27;;
52964;SDS011;42923;53.220;6.528;2022-12-18T03:43:02;45.33;;;17.58;;
52964;SDS011;42923;53.220;6.528;2022-12-18T03:45:34;54.67;;;23.55;;
52964;SDS011;42923;53.220;6.528;2022-12-18T03:50:48;67.38;;;27.85;;
52964;SDS011;42923;53.220;6.528;2022-12-18T03:56:10;34.55;;;16.83;;
52964;SDS011;42923;53.220;6.528;2022-12-18T03:58:40;27.75;;;13.32;;
52964;SDS011;42923;53.220;6.528;2022-12-18T04:01:31;26.33;;;11.43;;
52964;SDS011;42923;53.220;6.528;2022-12-18T04:04:03;55.70;;;21.88;;
52964;SDS011;42923;53.220;6.528;2022-12-18T04:06:35;34.15;;;15.60;;
52964;SDS011;42923;53.220;6.528;2022-12-18T04:09:02;58.58;;;23.75;;
52964;SDS011;42923;53.220;6.528;2022-12-18T04:11:32;37.35;;;16.25;;
52964;SDS011;42923;53.220;6.528;2022-12-18T04:13:59;23.98;;;12.18;;
52964;SDS011;42923;53.220;6.528;2022-12-18T04:16:25;36.38;;;17.75;;
52964;SDS011;42923;53.220;6.528;2022-12-18T04:18:54;53.88;;;19.20;;
52964;SDS011;42923;53.220;6.528;2022-12-18T04:21:22;42.55;;;20.27;;
52964;SDS011;42923;53.220;6.528;2022-12-18T04:23:49;41.53;;;17.33;;
52964;SDS011;42923;53.220;6.528;2022-12-18T04:26:18;46.38;;;19.38;;
52964;SDS011;42923;53.220;6.528;2022-12-18T04:28:53;36.45;;;15.18;;
52964;SDS011;42923;53.220;6.528;2022-12-18T04:31:19;42.50;;;20.30;;
52964;SDS011;42923;53.220;6.528;2022-12-18T04:33:46;31.30;;;15.57;;
52964;SDS011;42923;53.220;6.528;2022-12-18T04:36:12;35.47;;;20.30;;
52964;SDS011;42923;53.220;6.528;2022-12-18T04:38:39;42.15;;;17.80;;
52964;SDS011;42923;53.220;6.528;2022-12-18T04:41:09;52.13;;;20.60;;
52964;SDS011;42923;53.220;6.528;2022-12-18T04:43:35;47.85;;;19.95;;
52964;SDS011;42923;53.220;6.528;2022-12-18T04:46:02;23.98;;;10.30;;
52964;SDS011;42923;53.220;6.528;2022-12-18T04:48:29;43.83;;;20.33;;
52964;SDS011;42923;53.220;6.528;2022-12-18T04:50:54;45.35;;;20.00;;
52964;SDS011;42923;53.220;6.528;2022-12-18T04:53:20;38.35;;;14.18;;
52964;SDS011;42923;53.220;6.528;2022-12-18T04:55:46;65.88;;;25.52;;
52964;SDS011;42923;53.220;6.528;2022-12-18T04:58:11;52.40;;;21.75;;
52964;SDS011;42923;53.220;6.528;2022-12-18T05:00:37;49.25;;;21.50;;
52964;SDS011;42923;53.220;6.528;2022-12-18T05:03:03;65.22;;;23.17;;
52964;SDS011;42923;53.220;6.528;2022-12-18T05:05:28;55.53;;;24.98;;
52964;SDS011;42923;53.220;6.528;2022-12-18T05:07:54;23.48;;;10.57;;
52964;SDS011;42923;53.220;6.528;2022-12-18T05:10:20;49.88;;;23.00;;
52964;SDS011;42923;53.220;6.528;2022-12-18T05:12:45;22.00;;;10.05;;
52964;SDS011;42923;53.220;6.528;2022-12-18T05:15:23;28.23;;;14.38;;
52964;SDS011;42923;53.220;6.528;2022-12-18T05:17:51;44.67;;;15.90;;
52964;SDS011;42923;53.220;6.528;2022-12-18T05:20:17;44.50;;;17.33;;
52964;SDS011;42923;53.220;6.528;2022-12-18T05:22:43;32.20;;;12.00;;
52964;SDS011;42923;53.220;6.528;2022-12-18T05:25:09;51.63;;;24.70;;
52964;SDS011;42923;53.220;6.528;2022-12-18T05:27:34;38.25;;;15.98;;
52964;SDS011;42923;53.220;6.528;2022-12-18T05:30:00;59.50;;;22.90;;
52964;SDS011;42923;53.220;6.528;2022-12-18T05:32:26;21.63;;;10.52;;
52964;SDS011;42923;53.220;6.528;2022-12-18T05:34:51;59.95;;;26.50;;
52964;SDS011;42923;53.220;6.528;2022-12-18T05:37:17;61.78;;;17.58;;
52964;SDS011;42923;53.220;6.528;2022-12-18T05:39:43;43.33;;;19.35;;
52964;SDS011;42923;53.220;6.528;2022-12-18T05:42:09;34.30;;;17.20;;
52964;SDS011;42923;53.220;6.528;2022-12-18T05:44:35;39.45;;;16.02;;
52964;SDS011;42923;53.220;6.528;2022-12-18T05:47:00;75.28;;;29.10;;
52964;SDS011;42923;53.220;6.528;2022-12-18T05:49:26;38.53;;;18.42;;
52964;SDS011;42923;53.220;6.528;2022-12-18T05:51:52;56.42;;;22.13;;
52964;SDS011;42923;53.220;6.528;2022-12-18T05:54:17;53.63;;;18.85;;
52964;SDS011;42923;53.220;6.528;2022-12-18T05:56:43;44.45;;;18.30;;
52964;SDS011;42923;53.220;6.528;2022-12-18T05:59:09;42.17;;;16.83;;
52964;SDS011;42923;53.220;6.528;2022-12-18T06:01:35;50.45;;;20.30;;
52964;SDS011;42923;53.220;6.528;2022-12-18T06:04:00;30.13;;;14.88;;
52964;SDS011;42923;53.220;6.528;2022-12-18T06:06:26;51.40;;;18.13;;
52964;SDS011;42923;53.220;6.528;2022-12-18T06:08:53;32.72;;;12.27;;
52964;SDS011;42923;53.220;6.528;2022-12-18T06:11:21;37.08;;;16.35;;
52964;SDS011;42923;53.220;6.528;2022-12-18T06:13:51;41.42;;;17.98;;
52964;SDS011;42923;53.220;6.528;2022-12-18T06:16:18;51.45;;;21.45;;
52964;SDS011;42923;53.220;6.528;2022-12-18T06:18:44;50.75;;;23.65;;
52964;SDS011;42923;53.220;6.528;2022-12-18T06:21:10;49.75;;;22.20;;
52964;SDS011;42923;53.220;6.528;2022-12-18T06:23:35;44.72;;;20.98;;
52964;SDS011;42923;53.220;6.528;2022-12-18T06:26:05;47.90;;;20.77;;
52964;SDS011;42923;53.220;6.528;2022-12-18T06:28:31;34.47;;;16.35;;
52964;SDS011;42923;53.220;6.528;2022-12-18T06:30:57;31.50;;;15.43;;
52964;SDS011;42923;53.220;6.528;2022-12-18T06:33:25;37.65;;;14.30;;
52964;SDS011;42923;53.220;6.528;2022-12-18T06:35:52;29.60;;;14.48;;
52964;SDS011;42923;53.220;6.528;2022-12-18T06:38:17;31.88;;;15.05;;
52964;SDS011;42923;53.220;6.528;2022-12-18T06:40:43;11.68;;;6.82;;
52964;SDS011;42923;53.220;6.528;2022-12-18T06:43:09;34.75;;;18.92;;
52964;SDS011;42923;53.220;6.528;2022-12-18T06:45:34;32.47;;;11.73;;
52964;SDS011;42923;53.220;6.528;2022-12-18T06:48:00;28.00;;;10.00;;
52964;SDS011;42923;53.220;6.528;2022-12-18T06:50:26;23.95;;;11.75;;
52964;SDS011;42923;53.220;6.528;2022-12-18T06:52:52;29.70;;;13.68;;
52964;SDS011;42923;53.220;6.528;2022-12-18T06:55:17;20.67;;;12.75;;
52964;SDS011;42923;53.220;6.528;2022-12-18T06:57:43;20.80;;;10.35;;
52964;SDS011;42923;53.220;6.528;2022-12-18T07:00:09;31.55;;;15.50;;
52964;SDS011;42923;53.220;6.528;2022-12-18T07:02:35;21.13;;;10.43;;
52964;SDS011;42923;53.220;6.528;2022-12-18T07:05:01;18.05;;;11.43;;
52964;SDS011;42923;53.220;6.528;2022-12-18T07:07:27;17.50;;;9.18;;
52964;SDS011;42923;53.220;6.528;2022-12-18T07:09:52;28.08;;;13.15;;
52964;SDS011;42923;53.220;6.528;2022-12-18T07:12:18;35.28;;;20.10;;
52964;SDS011;42923;53.220;6.528;2022-12-18T07:14:44;32.47;;;13.32;;
52964;SDS011;42923;53.220;6.528;2022-12-18T07:17:09;21.63;;;11.60;;
52964;SDS011;42923;53.220;6.528;2022-12-18T07:19:35;33.38;;;15.20;;
52964;SDS011;42923;53.220;6.528;2022-12-18T07:22:01;29.65;;;13.43;;
52964;SDS011;42923;53.220;6.528;2022-12-18T07:24:27;21.73;;;9.60;;
52964;SDS011;42923;53.220;6.528;2022-12-18T07:26:53;21.77;;;8.98;;
52964;SDS011;42923;53.220;6.528;2022-12-18T07:29:19;44.63;;;18.38;;
52964;SDS011;42923;53.220;6.528;2022-12-18T07:31:44;40.47;;;13.88;;
52964;SDS011;42923;53.220;6.528;2022-12-18T07:34:11;17.17;;;9.57;;
52964;SDS011;42923;53.220;6.528;2022-12-18T07:36:37;31.08;;;11.40;;
52964;SDS011;42923;53.220;6.528;2022-12-18T07:39:03;30.13;;;13.38;;
52964;SDS011;42923;53.220;6.528;2022-12-18T07:41:29;20.70;;;10.07;;
52964;SDS011;42923;53.220;6.528;2022-12-18T07:43:54;13.35;;;6.53;;
52964;SDS011;42923;53.220;6.528;2022-12-18T07:46:20;28.95;;;13.63;;
52964;SDS011;42923;53.220;6.528;2022-12-18T07:48:46;28.13;;;13.10;;
52964;SDS011;42923;53.220;6.528;2022-12-18T07:51:12;28.10;;;12.88;;
52964;SDS011;42923;53.220;6.528;2022-12-18T07:53:38;23.27;;;10.98;;
52964;SDS011;42923;53.220;6.528;2022-12-18T07:56:05;20.50;;;8.90;;
52964;SDS011;42923;53.220;6.528;2022-12-18T07:58:33;17.67;;;8.68;;
52964;SDS011;42923;53.220;6.528;2022-12-18T08:01:03;11.50;;;6.85;;
52964;SDS011;42923;53.220;6.528;2022-12-18T08:03:29;26.55;;;13.30;;
52964;SDS011;42923;53.220;6.528;2022-12-18T08:06:13;17.40;;;7.45;;
52964;SDS011;42923;53.220;6.528;2022-12-18T08:08:39;29.58;;;15.15;;
52964;SDS011;42923;53.220;6.528;2022-12-18T08:11:06;22.05;;;11.63;;
52964;SDS011;42923;53.220;6.528;2022-12-18T08:13:32;13.82;;;7.93;;
52964;SDS011;42923;53.220;6.528;2022-12-18T08:16:02;29.17;;;14.70;;
52964;SDS011;42923;53.220;6.528;2022-12-18T08:18:31;15.18;;;9.00;;
52964;SDS011;42923;53.220;6.528;2022-12-18T08:21:06;22.63;;;8.88;;
52964;SDS011;42923;53.220;6.528;2022-12-18T08:23:33;14.32;;;8.15;;
52964;SDS011;42923;53.220;6.528;2022-12-18T08:25:59;16.83;;;8.23;;
52964;SDS011;42923;53.220;6.528;2022-12-18T08:28:24;14.40;;;8.88;;
52964;SDS011;42923;53.220;6.528;2022-12-18T08:30:53;30.58;;;13.68;;
52964;SDS011;42923;53.220;6.528;2022-12-18T08:33:19;21.88;;;10.40;;
52964;SDS011;42923;53.220;6.528;2022-12-18T08:35:44;15.98;;;8.98;;
52964;SDS011;42923;53.220;6.528;2022-12-18T08:38:10;6.35;;;5.15;;
52964;SDS011;42923;53.220;6.528;2022-12-18T08:40:36;19.08;;;9.95;;
52964;SDS011;42923;53.220;6.528;2022-12-18T08:43:02;21.00;;;9.40;;
52964;SDS011;42923;53.220;6.528;2022-12-18T08:45:46;11.07;;;5.82;;
52964;SDS011;42923;53.220;6.528;2022-12-18T08:48:11;10.27;;;7.35;;
52964;SDS011;42923;53.220;6.528;2022-12-18T08:50:37;15.05;;;9.38;;
52964;SDS011;42923;53.220;6.528;2022-12-18T08:53:03;11.70;;;4.43;;
52964;SDS011;42923;53.220;6.528;2022-12-18T08:55:28;13.55;;;6.90;;
52964;SDS011;42923;53.220;6.528;2022-12-18T08:57:54;22.67;;;11.10;;
52964;SDS011;42923;53.220;6.528;2022-12-18T09:00:20;26.50;;;10.48;;
52964;SDS011;42923;53.220;6.528;2022-12-18T09:02:45;13.38;;;7.60;;
52964;SDS011;42923;53.220;6.528;2022-12-18T09:05:11;15.10;;;7.32;;
52964;SDS011;42923;53.220;6.528;2022-12-18T09:07:37;23.58;;;10.23;;
52964;SDS011;42923;53.220;6.528;2022-12-18T09:10:03;15.88;;;7.65;;
52964;SDS011;42923;53.220;6.528;2022-12-18T09:12:29;27.60;;;13.63;;
52964;SDS011;42923;53.220;6.528;2022-12-18T09:14:54;19.67;;;10.82;;
52964;SDS011;42923;53.220;6.528;2022-12-18T09:17:21;20.27;;;10.32;;
52964;SDS011;42923;53.220;6.528;2022-12-18T09:19:47;15.23;;;8.68;;
52964;SDS011;42923;53.220;6.528;2022-12-18T09:22:13;28.35;;;15.15;;
52964;SDS011;42923;53.220;6.528;2022-12-18T09:24:38;21.30;;;11.43;;
52964;SDS011;42923;53.220;6.528;2022-12-18T09:27:04;23.15;;;11.88;;
52964;SDS011;42923;53.220;6.528;2022-12-18T09:29:30;24.05;;;12.32;;
52964;SDS011;42923;53.220;6.528;2022-12-18T09:31:55;21.13;;;11.07;;
52964;SDS011;42923;53.220;6.528;2022-12-18T09:34:21;18.77;;;9.95;;
52964;SDS011;42923;53.220;6.528;2022-12-18T09:36:47;27.65;;;10.07;;
52964;SDS011;42923;53.220;6.528;2022-12-18T09:39:13;21.33;;;8.95;;
52964;SDS011;42923;53.220;6.528;2022-12-18T09:41:41;14.98;;;8.68;;
52964;SDS011;42923;53.220;6.528;2022-12-18T09:49:42;18.02;;;7.55;;
52964;SDS011;42923;53.220;6.528;2022-12-18T09:52:21;21.10;;;9.40;;
52964;SDS011;42923;53.220;6.528;2022-12-18T09:54:56;17.08;;;9.52;;
52964;SDS011;42923;53.220;6.528;2022-12-18T09:57:31;17.80;;;9.85;;
52964;SDS011;42923;53.220;6.528;2022-12-18T10:00:04;20.08;;;10.27;;
52964;SDS011;42923;53.220;6.528;2022-12-18T10:02:40;16.88;;;9.70;;
52964;SDS011;42923;53.220;6.528;2022-12-18T10:05:28;18.60;;;10.02;;
52964;SDS011;42923;53.220;6.528;2022-12-18T10:08:05;17.33;;;8.93;;
52964;SDS011;42923;53.220;6.528;2022-12-18T10:16:19;11.35;;;5.53;;
52964;SDS011;42923;53.220;6.528;2022-12-18T10:21:37;17.58;;;9.38;;
52964;SDS011;42923;53.220;6.528;2022-12-18T10:24:24;18.85;;;9.88;;
52964;SDS011;42923;53.220;6.528;2022-12-18T10:27:16;15.88;;;6.78;;
52964;SDS011;42923;53.220;6.528;2022-12-18T10:29:43;13.23;;;7.35;;
52964;SDS011;42923;53.220;6.528;2022-12-18T10:32:19;13.68;;;8.05;;
52964;SDS011;42923;53.220;6.528;2022-12-18T10:34:48;15.40;;;8.35;;
52964;SDS011;42923;53.220;6.528;2022-12-18T10:37:16;17.88;;;8.82;;
52964;SDS011;42923;53.220;6.528;2022-12-18T10:39:45;15.25;;;8.63;;
52964;SDS011;42923;53.220;6.528;2022-12-18T10:42:30;16.80;;;8.38;;
52964;SDS011;42923;53.220;6.528;2022-12-18T10:45:08;12.30;;;7.00;;
52964;SDS011;42923;53.220;6.528;2022-12-18T10:47:36;11.93;;;5.13;;
52964;SDS011;42923;53.220;6.528;2022-12-18T10:50:17;8.45;;;5.18;;
52964;SDS011;42923;53.220;6.528;2022-12-18T10:52:56;13.00;;;7.35;;
52964;SDS011;42923;53.220;6.528;2022-12-18T10:55:31;13.53;;;8.20;;
52964;SDS011;42923;53.220;6.528;2022-12-18T11:00:40;10.50;;;6.38;;
52964;SDS011;42923;53.220;6.528;2022-12-18T11:03:28;11.93;;;6.85;;
52964;SDS011;42923;53.220;6.528;2022-12-18T11:06:18;7.13;;;4.65;;
52964;SDS011;42923;53.220;6.528;2022-12-18T11:09:03;11.75;;;6.63;;
52964;SDS011;42923;53.220;6.528;2022-12-18T11:11:31;7.80;;;5.30;;
52964;SDS011;42923;53.220;6.528;2022-12-18T11:16:47;11.82;;;6.95;;
52964;SDS011;42923;53.220;6.528;2022-12-18T11:19:19;9.85;;;5.97;;
52964;SDS011;42923;53.220;6.528;2022-12-18T11:21:54;11.23;;;7.00;;
52964;SDS011;42923;53.220;6.528;2022-12-18T11:24:34;11.98;;;4.97;;
52964;SDS011;42923;53.220;6.528;2022-12-18T11:27:04;10.10;;;6.22;;
52964;SDS011;42923;53.220;6.528;2022-12-18T11:29:35;11.35;;;6.78;;
52964;SDS011;42923;53.220;6.528;2022-12-18T11:34:41;10.35;;;5.47;;
52964;SDS011;42923;53.220;6.528;2022-12-18T11:37:11;7.15;;;4.63;;
52964;SDS011;42923;53.220;6.528;2022-12-18T11:39:40;9.90;;;5.30;;
52964;SDS011;42923;53.220;6.528;2022-12-18T11:47:46;8.00;;;4.13;;
52964;SDS011;42923;53.220;6.528;2022-12-18T11:50:23;6.97;;;4.97;;
52964;SDS011;42923;53.220;6.528;2022-12-18T11:52:51;9.57;;;5.45;;
52964;SDS011;42923;53.220;6.528;2022-12-18T11:55:21;6.43;;;5.13;;
52964;SDS011;42923;53.220;6.528;2022-12-18T12:00:37;7.35;;;4.18;;
52964;SDS011;42923;53.220;6.528;2022-12-18T12:03:35;6.45;;;4.28;;
52964;SDS011;42923;53.220;6.528;2022-12-18T12:16:50;8.52;;;5.47;;
52964;SDS011;42923;53.220;6.528;2022-12-18T12:19:56;7.35;;;4.60;;
52964;SDS011;42923;53.220;6.528;2022-12-18T12:28:32;10.20;;;4.93;;
52964;SDS011;42923;53.220;6.528;2022-12-18T12:30:58;9.60;;;5.10;;
52964;SDS011;42923;53.220;6.528;2022-12-18T12:33:36;4.53;;;3.03;;
52964;SDS011;42923;53.220;6.528;2022-12-18T12:38:57;6.18;;;4.80;;
52964;SDS011;42923;53.220;6.528;2022-12-18T12:41:27;6.45;;;3.95;;
52964;SDS011;42923;53.220;6.528;2022-12-18T12:44:35;5.40;;;4.03;;
52964;SDS011;42923;53.220;6.528;2022-12-18T12:47:28;8.60;;;4.03;;
52964;SDS011;42923;53.220;6.528;2022-12-18T12:49:58;5.15;;;3.47;;
52964;SDS011;42923;53.220;6.528;2022-12-18T12:52:32;4.75;;;3.33;;
52964;SDS011;42923;53.220;6.528;2022-12-18T12:55:13;8.40;;;4.88;;
52964;SDS011;42923;53.220;6.528;2022-12-18T13:06:19;6.15;;;3.60;;
52964;SDS011;42923;53.220;6.528;2022-12-18T13:08:59;5.47;;;3.88;;
52964;SDS011;42923;53.220;6.528;2022-12-18T13:11:47;5.47;;;3.25;;
52964;SDS011;42923;53.220;6.528;2022-12-18T13:14:32;8.38;;;4.38;;
52964;SDS011;42923;53.220;6.528;2022-12-18T13:20:02;7.72;;;3.05;;
52964;SDS011;42923;53.220;6.528;2022-12-18T13:22:34;6.20;;;3.70;;
52964;SDS011;42923;53.220;6.528;2022-12-18T13:25:01;8.70;;;4.40;;
52964;SDS011;42923;53.220;6.528;2022-12-18T13:43:52;9.40;;;3.72;;
52964;SDS011;42923;53.220;6.528;2022-12-18T13:46:29;5.25;;;3.50;;
52964;SDS011;42923;53.220;6.528;2022-12-18T13:51:39;5.43;;;2.15;;
52964;SDS011;42923;53.220;6.528;2022-12-18T13:56:57;7.55;;;4.63;;
52964;SDS011;42923;53.220;6.528;2022-12-18T13:59:33;4.90;;;3.80;;
52964;SDS011;42923;53.220;6.528;2022-12-18T14:02:05;8.55;;;4.72;;
52964;SDS011;42923;53.220;6.528;2022-12-18T14:04:40;6.82;;;4.18;;
52964;SDS011;42923;53.220;6.528;2022-12-18T14:07:14;4.00;;;2.85;;
52964;SDS011;42923;53.220;6.528;2022-12-18T14:09:47;9.23;;;4.93;;
52964;SDS011;42923;53.220;6.528;2022-12-18T14:12:17;7.93;;;4.25;;
52964;SDS011;42923;53.220;6.528;2022-12-18T14:15:02;14.65;;;5.00;;
52964;SDS011;42923;53.220;6.528;2022-12-18T14:17:30;7.00;;;4.30;;
52964;SDS011;42923;53.220;6.528;2022-12-18T14:19:56;8.52;;;5.05;;
52964;SDS011;42923;53.220;6.528;2022-12-18T14:22:25;11.18;;;4.97;;
52964;SDS011;42923;53.220;6.528;2022-12-18T14:27:42;7.90;;;4.72;;
52964;SDS011;42923;53.220;6.528;2022-12-18T14:30:23;7.20;;;4.75;;
52964;SDS011;42923;53.220;6.528;2022-12-18T14:35:33;9.82;;;5.40;;
52964;SDS011;42923;53.220;6.528;2022-12-18T14:38:11;8.48;;;4.15;;
52964;SDS011;42923;53.220;6.528;2022-12-18T14:40:45;6.82;;;4.22;;
52964;SDS011;42923;53.220;6.528;2022-12-18T14:43:11;7.00;;;4.45;;
52964;SDS011;42923;53.220;6.528;2022-12-18T14:45:38;3.47;;;3.17;;
52964;SDS011;42923;53.220;6.528;2022-12-18T14:50:36;7.18;;;4.40;;
52964;SDS011;42923;53.220;6.528;2022-12-18T14:53:02;5.07;;;3.78;;
52964;SDS011;42923;53.220;6.528;2022-12-18T14:55:29;9.07;;;5.25;;
52964;SDS011;42923;53.220;6.528;2022-12-18T14:57:56;6.78;;;4.05;;
52964;SDS011;42923;53.220;6.528;2022-12-18T15:00:23;9.18;;;5.25;;
52964;SDS011;42923;53.220;6.528;2022-12-18T15:02:54;17.63;;;5.93;;
52964;SDS011;42923;53.220;6.528;2022-12-18T15:05:28;6.93;;;4.50;;
52964;SDS011;42923;53.220;6.528;2022-12-18T15:07:56;11.80;;;5.70;;
52964;SDS011;42923;53.220;6.528;2022-12-18T15:10:25;10.80;;;5.78;;
52964;SDS011;42923;53.220;6.528;2022-12-18T15:18:01;7.47;;;5.38;;
52964;SDS011;42923;53.220;6.528;2022-12-18T15:20:27;11.20;;;5.93;;
52964;SDS011;42923;53.220;6.528;2022-12-18T15:22:55;7.72;;;4.57;;
52964;SDS011;42923;53.220;6.528;2022-12-18T15:25:29;12.65;;;5.78;;
52964;SDS011;42923;53.220;6.528;2022-12-18T15:28:04;8.18;;;5.45;;
52964;SDS011;42923;53.220;6.528;2022-12-18T15:30:59;12.80;;;5.75;;
52964;SDS011;42923;53.220;6.528;2022-12-18T15:33:27;9.60;;;5.22;;
52964;SDS011;42923;53.220;6.528;2022-12-18T15:35:58;13.48;;;5.93;;
52964;SDS011;42923;53.220;6.528;2022-12-18T15:38:29;6.28;;;3.78;;
52964;SDS011;42923;53.220;6.528;2022-12-18T15:40:55;10.50;;;6.30;;
52964;SDS011;42923;53.220;6.528;2022-12-18T15:43:22;13.80;;;6.05;;
52964;SDS011;42923;53.220;6.528;2022-12-18T15:46:02;7.55;;;4.57;;
52964;SDS011;42923;53.220;6.528;2022-12-18T15:48:33;7.18;;;4.45;;
52964;SDS011;42923;53.220;6.528;2022-12-18T15:51:00;9.52;;;4.68;;
52964;SDS011;42923;53.220;6.528;2022-12-18T15:53:28;7.03;;;4.35;;
52964;SDS011;42923;53.220;6.528;2022-12-18T15:55:57;11.27;;;6.13;;
52964;SDS011;42923;53.220;6.528;2022-12-18T15:58:42;9.05;;;5.18;;
52964;SDS011;42923;53.220;6.528;2022-12-18T16:01:08;7.38;;;4.88;;
52964;SDS011;42923;53.220;6.528;2022-12-18T16:03:35;7.35;;;4.85;;
52964;SDS011;42923;53.220;6.528;2022-12-18T16:06:01;8.48;;;4.68;;
52964;SDS011;42923;53.220;6.528;2022-12-18T16:08:30;7.60;;;3.95;;
52964;SDS011;42923;53.220;6.528;2022-12-18T16:10:57;10.85;;;5.63;;
52964;SDS011;42923;53.220;6.528;2022-12-18T16:13:23;16.27;;;6.18;;
52964;SDS011;42923;53.220;6.528;2022-12-18T16:15:49;9.10;;;4.63;;
52964;SDS011;42923;53.220;6.528;2022-12-18T16:18:15;10.55;;;5.88;;
52964;SDS011;42923;53.220;6.528;2022-12-18T16:20:40;9.60;;;5.22;;
52964;SDS011;42923;53.220;6.528;2022-12-18T16:23:06;6.40;;;4.45;;
52964;SDS011;42923;53.220;6.528;2022-12-18T16:25:32;9.73;;;5.38;;
52964;SDS011;42923;53.220;6.528;2022-12-18T16:27:58;11.68;;;5.28;;
52964;SDS011;42923;53.220;6.528;2022-12-18T16:30:25;6.57;;;4.47;;
52964;SDS011;42923;53.220;6.528;2022-12-18T16:32:56;7.10;;;4.65;;
52964;SDS011;42923;53.220;6.528;2022-12-18T16:35:23;7.03;;;5.32;;
52964;SDS011;42923;53.220;6.528;2022-12-18T16:37:49;9.68;;;5.50;;
52964;SDS011;42923;53.220;6.528;2022-12-18T16:40:16;8.80;;;5.00;;
52964;SDS011;42923;53.220;6.528;2022-12-18T16:42:43;6.45;;;5.20;;
52964;SDS011;42923;53.220;6.528;2022-12-18T16:45:14;8.45;;;5.30;;
52964;SDS011;42923;53.220;6.528;2022-12-18T16:47:41;6.43;;;4.28;;
52964;SDS011;42923;53.220;6.528;2022-12-18T16:50:08;12.20;;;6.63;;
52964;SDS011;42923;53.220;6.528;2022-12-18T16:52:34;11.23;;;5.65;;